Ellipsis — WDE4581 — position and weather

sailwx.info

Track history (hours):
 
Tides and Currents Weather Stations Pressure Air Temp Water Temp Dewpoint Dewpoint Depression Visibility Wind Speed Wind Dir Waves Ship Positions

Ellipsis

Owner: Gulledge, Carl L, Redmond, WA. More information available from US FCC via Universal Licensing System and Coast Guard Vessel Documentation Center.

Last reported at 2017-Aug-19 10:28 UTC. Time now 2017-Aug-19 10:57 UTC.
Position N 50°09' W 124°57'.

Length 19 m.

Type: Pleasure craft. MMSI: 367355160.

Date/timePositionNaut miles runAvg speedWind from/ knotsBaromVisibWave heightAir tempDewpointWater temp
2017-Aug-19 10:28N 50°09' W 124°57'0 0.0
2017-Aug-19 09:55N 50°09' W 124°57'0 0.0
2017-Aug-19 09:25N 50°09' W 124°57'0 0.0
2017-Aug-19 08:58N 50°09' W 124°57'0 0.0
2017-Aug-19 08:28N 50°09' W 124°57'0 0.0
2017-Aug-19 07:49N 50°09' W 124°57'0 0.0
2017-Aug-19 07:28N 50°09' W 124°57'0 0.0
2017-Aug-19 06:58N 50°09' W 124°57'0 0.0
2017-Aug-19 06:19N 50°09' W 124°57'0 0.0
2017-Aug-19 05:58N 50°09' W 124°57'0 0.0
2017-Aug-19 05:28N 50°09' W 124°57'0 0.0
2017-Aug-19 04:58N 50°09' W 124°57'0 0.0
2017-Aug-19 04:25N 50°09' W 124°57'0 0.0
2017-Aug-19 03:55N 50°09' W 124°57'0 0.0
2017-Aug-19 03:28N 50°09' W 124°57'0 0.0
2017-Aug-19 02:49N 50°09' W 124°57'0 0.0
2017-Aug-19 02:28N 50°09' W 124°57'0 0.0
2017-Aug-19 01:49N 50°09' W 124°57'0 0.0
2017-Aug-19 01:25N 50°09' W 124°57'0 0.0
2017-Aug-19 00:55N 50°09' W 124°57'0 0.0
2017-Aug-19 00:28N 50°09' W 124°57'0 0.0
2017-Aug-18 23:55N 50°09' W 124°57'0 0.0
2017-Aug-18 23:25N 50°09' W 124°57'0 0.0
2017-Aug-18 22:22N 50°09' W 124°57'0 0.0
2017-Aug-18 21:55N 50°09' W 124°57'0 0.0
2017-Aug-18 21:25N 50°09' W 124°57'0 0.0
2017-Aug-18 20:49N 50°09' W 124°57'0 0.0
2017-Aug-18 20:25N 50°09' W 124°57'0 0.0
2017-Aug-18 19:28N 50°09' W 124°57'0 0.0
2017-Aug-18 18:55N 50°09' W 124°57'0 0.0
2017-Aug-18 18:28N 50°09' W 124°57'0 0.0
2017-Aug-18 17:52N 50°09' W 124°57'0 0.0
2017-Aug-18 17:28N 50°09' W 124°57'1 2.6
2017-Aug-18 17:00N 50°10' W 124°57'3 5.1
2017-Aug-18 16:30N 50°12' W 124°60'4 8.2
2017-Aug-18 16:00N 50°15' W 125°03'4 8.3
2017-Aug-18 15:30N 50°19' W 125°06'6 6.3
2017-Aug-18 14:36N 50°16' W 125°14'2 0.1
2017-Aug-17 04:57N 50°16' W 125°17'89 2.3
2017-Aug-15 14:17N 50°47' W 127°28'2 6.8
2017-Aug-15 14:00N 50°48' W 127°31'4 8.5
2017-Aug-15 13:30N 50°49' W 127°37'3 5.1
2017-Aug-15 12:57N 50°51' W 127°40'0 0.0
2017-Aug-15 12:27N 50°51' W 127°40'0 0.0
2017-Aug-15 11:57N 50°51' W 127°40'0 0.0
2017-Aug-15 11:27N 50°51' W 127°40'0 0.0
2017-Aug-15 10:57N 50°51' W 127°40'0 0.1
2017-Aug-15 10:27N 50°51' W 127°40'0 0.0
2017-Aug-15 09:57N 50°51' W 127°40'0 0.1
2017-Aug-15 09:27N 50°51' W 127°40'0 0.0
2017-Aug-15 08:57N 50°51' W 127°40'0 0.1
2017-Aug-15 08:27N 50°51' W 127°40'0 0.0
2017-Aug-15 07:45N 50°51' W 127°40'0 0.0
2017-Aug-15 07:21N 50°51' W 127°40'0 0.0
2017-Aug-15 06:57N 50°51' W 127°40'0 0.0
2017-Aug-15 06:21N 50°51' W 127°40'0 0.0
2017-Aug-15 05:51N 50°51' W 127°40'0 0.0
2017-Aug-15 05:27N 50°51' W 127°40'0 0.0
2017-Aug-15 04:57N 50°51' W 127°40'0 0.0
2017-Aug-15 04:27N 50°51' W 127°40'0 0.0
2017-Aug-15 03:51N 50°51' W 127°40'0 0.0
2017-Aug-15 03:27N 50°51' W 127°40'0 0.0
2017-Aug-15 02:57N 50°51' W 127°40'0 0.0
2017-Aug-15 02:27N 50°51' W 127°40'0 0.0
2017-Aug-15 01:57N 50°51' W 127°40'0 0.0
2017-Aug-15 01:27N 50°51' W 127°40'0 0.1
2017-Aug-15 00:57N 50°51' W 127°40'0 0.0
2017-Aug-15 00:27N 50°51' W 127°40'1 1.5
2017-Aug-15 00:00N 50°51' W 127°39'3 6.1
2017-Aug-14 23:30N 50°54' W 127°41'4 8.4
2017-Aug-14 23:00N 50°57' W 127°45'4 7.7
2017-Aug-14 22:27N 51°01' W 127°47'32 8.2
2017-Aug-14 18:33N 51°33' W 127°52'0 8.4
2017-Aug-14 18:30N 51°33' W 127°52'4 8.1
2017-Aug-14 18:00N 51°37' W 127°53'4 8.3
2017-Aug-14 17:30N 51°42' W 127°54'4 8.1
2017-Aug-14 17:00N 51°46' W 127°55'4 7.8
2017-Aug-14 16:30N 51°49' W 127°55'  
Track history (hours):
 
Tides and Currents Weather Stations Pressure Air Temp Water Temp Dewpoint Dewpoint Depression Visibility Wind Speed Wind Dir Waves Ship Positions

Ellipsis

Owner: Gulledge, Carl L, Redmond, WA. More information available from US FCC via Universal Licensing System and Coast Guard Vessel Documentation Center.

Last reported at 2017-Aug-19 10:28 UTC. Time now 2017-Aug-19 10:57 UTC.
Position N 50°09' W 124°57'.

Length 19 m.

Type: Pleasure craft. MMSI: 367355160.

Date/timePositionNaut miles runAvg speedWind from/ knotsBaromVisibWave heightAir tempDewpointWater temp
2017-Aug-19 10:28N 50°09' W 124°57'0 0.0
2017-Aug-19 09:55N 50°09' W 124°57'0 0.0
2017-Aug-19 09:25N 50°09' W 124°57'0 0.0
2017-Aug-19 08:58N 50°09' W 124°57'0 0.0
2017-Aug-19 08:28N 50°09' W 124°57'0 0.0
2017-Aug-19 07:49N 50°09' W 124°57'0 0.0
2017-Aug-19 07:28N 50°09' W 124°57'0 0.0
2017-Aug-19 06:58N 50°09' W 124°57'0 0.0
2017-Aug-19 06:19N 50°09' W 124°57'0 0.0
2017-Aug-19 05:58N 50°09' W 124°57'0 0.0
2017-Aug-19 05:28N 50°09' W 124°57'0 0.0
2017-Aug-19 04:58N 50°09' W 124°57'0 0.0
2017-Aug-19 04:25N 50°09' W 124°57'0 0.0
2017-Aug-19 03:55N 50°09' W 124°57'0 0.0
2017-Aug-19 03:28N 50°09' W 124°57'0 0.0
2017-Aug-19 02:49N 50°09' W 124°57'0 0.0
2017-Aug-19 02:28N 50°09' W 124°57'0 0.0
2017-Aug-19 01:49N 50°09' W 124°57'0 0.0
2017-Aug-19 01:25N 50°09' W 124°57'0 0.0
2017-Aug-19 00:55N 50°09' W 124°57'0 0.0
2017-Aug-19 00:28N 50°09' W 124°57'0 0.0
2017-Aug-18 23:55N 50°09' W 124°57'0 0.0
2017-Aug-18 23:25N 50°09' W 124°57'0 0.0
2017-Aug-18 22:22N 50°09' W 124°57'0 0.0
2017-Aug-18 21:55N 50°09' W 124°57'0 0.0
2017-Aug-18 21:25N 50°09' W 124°57'0 0.0
2017-Aug-18 20:49N 50°09' W 124°57'0 0.0
2017-Aug-18 20:25N 50°09' W 124°57'0 0.0
2017-Aug-18 19:28N 50°09' W 124°57'0 0.0
2017-Aug-18 18:55N 50°09' W 124°57'0 0.0
2017-Aug-18 18:28N 50°09' W 124°57'0 0.0
2017-Aug-18 17:52N 50°09' W 124°57'0 0.0
2017-Aug-18 17:28N 50°09' W 124°57'1 2.6
2017-Aug-18 17:00N 50°10' W 124°57'3 5.1
2017-Aug-18 16:30N 50°12' W 124°60'4 8.2
2017-Aug-18 16:00N 50°15' W 125°03'4 8.3
2017-Aug-18 15:30N 50°19' W 125°06'6 6.3
2017-Aug-18 14:36N 50°16' W 125°14'2 0.1
2017-Aug-17 04:57N 50°16' W 125°17'89 2.3
2017-Aug-15 14:17N 50°47' W 127°28'2 6.8
2017-Aug-15 14:00N 50°48' W 127°31'4 8.5
2017-Aug-15 13:30N 50°49' W 127°37'3 5.1
2017-Aug-15 12:57N 50°51' W 127°40'0 0.0
2017-Aug-15 12:27N 50°51' W 127°40'0 0.0
2017-Aug-15 11:57N 50°51' W 127°40'0 0.0
2017-Aug-15 11:27N 50°51' W 127°40'0 0.0
2017-Aug-15 10:57N 50°51' W 127°40'0 0.1
2017-Aug-15 10:27N 50°51' W 127°40'0 0.0
2017-Aug-15 09:57N 50°51' W 127°40'0 0.1
2017-Aug-15 09:27N 50°51' W 127°40'0 0.0
2017-Aug-15 08:57N 50°51' W 127°40'0 0.1
2017-Aug-15 08:27N 50°51' W 127°40'0 0.0
2017-Aug-15 07:45N 50°51' W 127°40'0 0.0
2017-Aug-15 07:21N 50°51' W 127°40'0 0.0
2017-Aug-15 06:57N 50°51' W 127°40'0 0.0
2017-Aug-15 06:21N 50°51' W 127°40'0 0.0
2017-Aug-15 05:51N 50°51' W 127°40'0 0.0
2017-Aug-15 05:27N 50°51' W 127°40'0 0.0
2017-Aug-15 04:57N 50°51' W 127°40'0 0.0
2017-Aug-15 04:27N 50°51' W 127°40'0 0.0
2017-Aug-15 03:51N 50°51' W 127°40'0 0.0
2017-Aug-15 03:27N 50°51' W 127°40'0 0.0
2017-Aug-15 02:57N 50°51' W 127°40'0 0.0
2017-Aug-15 02:27N 50°51' W 127°40'0 0.0
2017-Aug-15 01:57N 50°51' W 127°40'0 0.0
2017-Aug-15 01:27N 50°51' W 127°40'0 0.1
2017-Aug-15 00:57N 50°51' W 127°40'0 0.0
2017-Aug-15 00:27N 50°51' W 127°40'1 1.5
2017-Aug-15 00:00N 50°51' W 127°39'3 6.1
2017-Aug-14 23:30N 50°54' W 127°41'4 8.4
2017-Aug-14 23:00N 50°57' W 127°45'4 7.7
2017-Aug-14 22:27N 51°01' W 127°47'32 8.2
2017-Aug-14 18:33N 51°33' W 127°52'0 8.4
2017-Aug-14 18:30N 51°33' W 127°52'4 8.1
2017-Aug-14 18:00N 51°37' W 127°53'4 8.3
2017-Aug-14 17:30N 51°42' W 127°54'4 8.1
2017-Aug-14 17:00N 51°46' W 127°55'4 7.8
2017-Aug-14 16:30N 51°49' W 127°55'  

Dump ship's entire track history